Time;durP1;ratioP1;P1;durP2;ratioP2;P2;SDS_P1;SDS_P2;PMS_P1;PMS_P2;Temp;Humidity;BMP_temperature;BMP_pressure;BME280_temperature;BME280_humidity;BME280_pressure;Samples;Min_cycle;Max_cycle;Signal;HPM_P1;HPM_P2
2021/11/12 00:03:41;;;;;;;60.95;34.28;;;;;;;7.48;100.00;101578.41;5007376;28;20056;-83
2021/11/12 00:11:55;;;;;;;61.03;33.17;;;;;;;7.46;100.00;101564.47;4994149;28;20034;-83
2021/11/12 00:14:24;;;;;;;62.70;36.13;;;;;;;7.43;100.00;101564.59;5013497;28;20056;-84
2021/11/12 00:16:54;;;;;;;65.32;37.17;;;;;;;7.40;100.00;101564.66;4984899;28;20186;-82
2021/11/12 00:19:21;;;;;;;61.85;36.35;;;;;;;7.42;100.00;101564.59;4994172;28;20044;-83
2021/11/12 00:21:48;;;;;;;64.20;35.92;;;;;;;7.38;100.00;101557.75;4997249;28;20508;-82
2021/11/12 00:24:15;;;;;;;63.70;36.85;;;;;;;7.37;100.00;101554.28;4992861;28;20100;-82
2021/11/12 00:26:43;;;;;;;61.80;36.35;;;;;;;7.41;100.00;101557.66;4996085;28;20045;-83
2021/11/12 00:29:11;;;;;;;61.78;38.03;;;;;;;7.40;100.00;101551.56;5010837;28;20124;-83
2021/11/12 00:37:49;;;;;;;63.85;36.42;;;;;;;7.43;100.00;101558.47;5019800;28;20050;-83
2021/11/12 00:39:47;;;;;;;66.15;39.25;;;;;;;7.41;100.00;101562.91;4993982;28;20519;-81
2021/11/12 00:42:23;;;;;;;66.03;37.50;;;;;;;7.41;100.00;101558.50;4999816;28;20056;-83
2021/11/12 00:45:00;;;;;;;61.17;35.20;;;;;;;7.46;100.00;101561.84;4995149;28;20047;-83
2021/11/12 00:48:15;;;;;;;60.47;35.58;;;;;;;7.45;100.00;101556.66;4999086;28;20041;-83
2021/11/12 00:55:28;;;;;;;61.42;36.55;;;;;;;7.52;100.00;101564.28;4997269;28;20038;-83
2021/11/12 00:57:56;;;;;;;61.08;35.45;;;;;;;7.46;100.00;101572.31;4978505;28;20076;-82
2021/11/12 01:00:26;;;;;;;66.60;36.80;;;;;;;7.47;100.00;101566.19;5013763;28;20056;-82
2021/11/12 01:02:54;;;;;;;65.88;38.35;;;;;;;7.49;100.00;101564.38;4992947;28;20038;-82
2021/11/12 01:05:22;;;;;;;60.97;36.55;;;;;;;7.47;100.00;101562.69;4992625;28;20138;-82
2021/11/12 01:07:49;;;;;;;63.63;36.50;;;;;;;7.46;100.00;101559.22;5013011;28;20077;-82
2021/11/12 01:10:18;;;;;;;61.03;35.75;;;;;;;7.49;100.00;101571.38;5006298;28;20045;-82
2021/11/12 01:12:49;;;;;;;64.95;36.17;;;;;;;7.47;100.00;101568.78;4993351;28;20034;-82
2021/11/12 01:15:17;;;;;;;66.57;36.42;;;;;;;7.54;100.00;101567.72;4995174;28;20057;-82
2021/11/12 01:17:45;;;;;;;62.92;36.25;;;;;;;7.51;100.00;101567.78;4984693;28;20071;-83
2021/11/12 01:20:15;;;;;;;60.78;34.65;;;;;;;7.48;100.00;101564.44;4999543;28;20046;-83
2021/11/12 01:22:43;;;;;;;63.95;35.13;;;;;;;7.46;100.00;101571.47;4998490;28;20578;-83
2021/11/12 01:25:12;;;;;;;63.25;35.90;;;;;;;7.57;100.00;101564.16;5008519;28;20074;-83
2021/11/12 01:27:39;;;;;;;59.75;36.05;;;;;;;7.56;100.00;101565.88;4979736;28;20048;-83
2021/11/12 01:30:11;;;;;;;60.90;35.28;;;;;;;7.55;100.00;101564.19;4990509;28;20058;-82
2021/11/12 01:32:39;;;;;;;58.97;34.90;;;;;;;7.52;100.00;101558.16;5012447;28;20060;-83
2021/11/12 01:35:08;;;;;;;69.53;36.20;;;;;;;7.48;100.00;101557.44;4989811;28;20069;-83
2021/11/12 01:37:36;;;;;;;62.47;34.63;;;;;;;7.52;100.00;101555.56;5008888;28;20137;-83
2021/11/12 01:40:08;;;;;;;63.47;37.15;;;;;;;7.53;100.00;101559.91;4978539;28;20052;-83
2021/11/12 01:43:12;;;;;;;62.95;35.75;;;;;;;7.58;100.00;101560.63;4991616;28;20045;-83
2021/11/12 01:46:07;;;;;;;61.60;35.17;;;;;;;7.53;100.00;101552.91;5005953;28;20038;-83
2021/11/12 01:51:40;;;;;;;67.38;35.25;;;;;;;7.56;100.00;101549.31;5009316;28;20105;-84
2021/11/12 01:54:23;;;;;;;64.63;35.00;;;;;;;7.55;100.00;101542.38;4990510;28;20112;-83
2021/11/12 01:59:20;;;;;;;59.17;34.28;;;;;;;7.55;100.00;101535.34;4995314;28;20046;-83
2021/11/12 02:01:49;;;;;;;62.72;35.65;;;;;;;7.55;100.00;101527.50;4986389;28;20064;-83
2021/11/12 02:04:19;;;;;;;63.40;35.70;;;;;;;7.58;100.00;101532.66;4982116;28;20251;-82
2021/11/12 02:06:47;;;;;;;58.97;33.75;;;;;;;7.59;100.00;101530.88;5015310;28;20054;-83
2021/11/12 02:09:20;;;;;;;68.25;36.67;;;;;;;7.60;100.00;101532.59;5003039;28;20052;-84
2021/11/12 02:12:00;;;;;;;61.47;35.05;;;;;;;7.57;100.00;101541.41;4996637;28;20117;-83
2021/11/12 02:14:29;;;;;;;62.50;34.78;;;;;;;7.61;100.00;101539.56;4993323;28;20064;-83
2021/11/12 02:17:07;;;;;;;62.10;32.40;;;;;;;7.60;100.00;101536.06;5003187;28;20480;-83
2021/11/12 02:19:35;;;;;;;61.80;32.35;;;;;;;7.59;100.00;101534.34;4980740;28;20050;-83
2021/11/12 02:22:08;;;;;;;60.08;31.48;;;;;;;7.54;100.00;101538.88;4991650;28;20069;-83
2021/11/12 02:24:39;;;;;;;60.05;31.73;;;;;;;7.49;100.00;101532.94;4984078;28;20117;-83
2021/11/12 02:27:11;;;;;;;59.72;32.20;;;;;;;7.49;100.00;101529.47;4988577;28;20135;-83
2021/11/12 02:29:45;;;;;;;57.58;31.73;;;;;;;7.49;100.00;101527.69;4998957;28;20050;-81
2021/11/12 02:32:18;;;;;;;55.33;30.92;;;;;;;7.51;100.00;101528.50;4980326;28;20137;-84
2021/11/12 02:34:48;;;;;;;62.05;31.88;;;;;;;7.52;100.00;101519.75;4983714;28;20407;-83
2021/11/12 02:37:16;;;;;;;54.15;29.90;;;;;;;7.55;100.00;101524.88;5012079;28;20050;-83
2021/11/12 02:39:43;;;;;;;61.50;32.80;;;;;;;7.56;100.00;101516.09;5005507;28;20129;-83
2021/11/12 02:42:12;;;;;;;57.92;32.63;;;;;;;7.59;100.00;101523.88;5014606;28;20037;-84
2021/11/12 02:44:41;;;;;;;60.10;32.75;;;;;;;7.65;100.00;101514.09;4991105;28;20763;-84
2021/11/12 02:47:12;;;;;;;59.40;32.63;;;;;;;7.66;100.00;101514.06;4983670;28;20045;-83
2021/11/12 02:49:40;;;;;;;58.33;31.70;;;;;;;7.69;100.00;101521.81;4979741;28;20056;-84
2021/11/12 02:52:09;;;;;;;62.88;34.72;;;;;;;7.67;100.00;101513.16;4994015;28;20038;-85
2021/11/12 02:54:38;;;;;;;66.53;34.17;;;;;;;7.67;100.00;101514.91;4992796;28;20109;-83
2021/11/12 02:57:06;;;;;;;60.03;32.85;;;;;;;7.64;100.00;101525.50;5010372;28;20050;-84
2021/11/12 02:59:34;;;;;;;61.40;33.90;;;;;;;7.61;100.00;101526.47;5013789;28;20034;-86
2021/11/12 03:02:05;;;;;;;61.13;34.13;;;;;;;7.64;100.00;101534.22;5002443;28;20105;-85
2021/11/12 03:04:32;;;;;;;62.90;32.85;;;;;;;7.64;100.00;101530.72;5055479;23;20129;-62
2021/11/12 03:07:00;;;;;;;65.47;32.85;;;;;;;7.65;100.00;101533.28;5037894;28;20168;-62
2021/11/12 03:09:28;;;;;;;63.78;35.33;;;;;;;7.64;100.00;101535.97;5026463;28;20951;-63
2021/11/12 03:11:57;;;;;;;60.72;32.15;;;;;;;7.61;100.00;101529.94;5026828;28;20072;-61
2021/11/12 03:14:25;;;;;;;64.20;33.88;;;;;;;7.61;100.00;101519.47;5019758;28;20049;-62
2021/11/12 03:16:52;;;;;;;59.15;33.15;;;;;;;7.66;100.00;101523.69;5023775;28;20064;-62
2021/11/12 03:19:23;;;;;;;59.95;31.95;;;;;;;7.67;100.00;101522.78;5027872;28;20064;-61
2021/11/12 03:21:52;;;;;;;60.97;33.17;;;;;;;7.65;100.00;101524.56;5021313;28;20391;-62
2021/11/12 03:24:25;;;;;;;59.75;32.65;;;;;;;7.67;100.00;101515.78;5025780;28;21727;-62
2021/11/12 03:47:10;;;;;;;51.80;28.37;;;;;;;7.68;100.00;101512.25;5027467;28;20004;-61
2021/11/12 04:00:08;;;;;;;54.15;29.42;;;;;;;7.67;100.00;101505.28;5023263;28;20049;-63
2021/11/12 04:05:37;;;;;;;59.80;30.27;;;;;;;7.66;100.00;101502.72;5027241;28;20057;-63
2021/11/12 04:30:37;;;;;;;49.47;27.87;;;;;;;7.72;100.00;101490.25;5027766;28;20125;-63
2021/11/12 04:30:40;;;;;;;58.17;30.40;;;;;;;7.73;100.00;101485.88;5014411;28;20575;-62
2021/11/12 04:30:59;;;;;;;;;;;;;;;7.65;100.00;101487.88;5027305;28;20050;-63
2021/11/12 04:50:05;;;;;;;61.15;30.45;;;;;;;7.64;100.00;101499.28;5025466;28;20057;-63
2021/11/12 05:49:41;;;;;;;81.07;32.42;;;;;;;7.60;100.00;101493.28;4999399;28;20064;-63
2021/11/12 05:50:01;;;;;;;88.38;35.95;;;;;;;7.59;100.00;101494.19;5015255;28;20049;-61
2021/11/12 05:55:14;;;;;;;90.00;35.83;;;;;;;7.57;100.00;101493.41;5017153;28;20069;-62
2021/11/12 05:57:41;;;;;;;86.32;33.53;;;;;;;7.52;100.00;101496.19;5012832;28;20080;-62
2021/11/12 06:00:14;;;;;;;93.57;34.45;;;;;;;7.52;100.00;101495.28;5010913;28;20531;-63
2021/11/12 06:02:41;;;;;;;92.35;34.72;;;;;;;7.52;100.00;101493.56;5037177;28;20266;-61
2021/11/12 06:05:09;;;;;;;86.03;34.97;;;;;;;7.45;100.00;101493.78;5018877;28;20481;-62
2021/11/12 06:07:37;;;;;;;91.78;36.40;;;;;;;7.47;100.00;101490.19;5013565;28;20053;-63
2021/11/12 06:10:05;;;;;;;87.47;34.92;;;;;;;7.43;100.00;101490.34;5015838;28;20057;-62
2021/11/12 06:12:32;;;;;;;92.40;35.97;;;;;;;7.38;100.00;101495.72;5030497;28;20048;-61
2021/11/12 06:15:00;;;;;;;93.57;35.38;;;;;;;7.42;100.00;101496.50;5017599;28;20056;-61
2021/11/12 06:17:27;;;;;;;88.28;36.00;;;;;;;7.43;100.00;101495.59;5030118;28;20049;-62
2021/11/12 06:19:54;;;;;;;99.72;38.30;;;;;;;7.48;100.00;101494.56;5019583;28;20053;-62
2021/11/12 06:22:21;;;;;;;96.80;38.75;;;;;;;7.40;100.00;101495.69;5025049;28;20057;-61
2021/11/12 06:24:48;;;;;;;99.80;36.63;;;;;;;7.40;100.00;101499.19;5019895;28;20041;-61
2021/11/12 06:27:15;;;;;;;96.57;38.30;;;;;;;7.43;100.00;101506.94;5023453;28;20046;-62
2021/11/12 06:29:43;;;;;;;88.07;35.95;;;;;;;7.38;100.00;101498.34;5018803;28;20061;-62
2021/11/12 06:32:11;;;;;;;97.63;36.28;;;;;;;7.34;100.00;101497.63;5031069;28;20058;-62
2021/11/12 06:34:39;;;;;;;95.07;35.80;;;;;;;7.40;100.00;101496.56;5022204;28;20390;-62
2021/11/12 06:37:06;;;;;;;91.90;36.20;;;;;;;7.37;100.00;101504.50;5023680;28;20045;-63
2021/11/12 06:39:33;;;;;;;108.22;41.10;;;;;;;7.40;100.00;101503.56;5021715;28;20459;-61
2021/11/12 06:42:13;;;;;;;95.78;39.22;;;;;;;7.36;100.00;101505.41;5027673;28;20045;-63
2021/11/12 06:44:53;;;;;;;97.18;38.10;;;;;;;7.32;100.00;101501.19;5023698;28;20145;-63
2021/11/12 06:50:13;;;;;;;104.63;41.67;;;;;;;7.27;100.00;101509.19;4971210;28;20049;-62
2021/11/12 06:52:46;;;;;;;102.97;40.88;;;;;;;7.21;100.00;101506.75;5017881;28;20064;-62
2021/11/12 06:55:15;;;;;;;102.47;40.83;;;;;;;7.21;100.00;101512.00;5015939;28;20054;-62
2021/11/12 06:57:43;;;;;;;99.13;42.40;;;;;;;7.21;100.00;101504.16;5020706;28;20053;-62
2021/11/12 07:00:16;;;;;;;93.80;39.33;;;;;;;7.21;100.00;101500.66;5022465;28;20049;-62
2021/11/12 07:02:44;;;;;;;103.20;42.33;;;;;;;7.19;100.00;101495.47;5020045;28;20049;-62
2021/11/12 07:05:12;;;;;;;105.07;42.08;;;;;;;7.24;100.00;101498.78;5019439;28;20049;-62
2021/11/12 07:07:39;;;;;;;103.10;43.17;;;;;;;7.23;100.00;101497.06;5024505;28;20427;-62
2021/11/12 07:10:08;;;;;;;98.38;39.35;;;;;;;7.24;100.00;101488.31;5022189;28;20048;-62
2021/11/12 07:12:35;;;;;;;99.10;39.83;;;;;;;7.22;100.00;101487.50;5025308;28;20049;-61
2021/11/12 07:15:03;;;;;;;98.75;41.65;;;;;;;7.24;100.00;101492.69;5021515;28;20513;-63
2021/11/12 07:17:30;;;;;;;91.75;39.28;;;;;;;7.21;100.00;101491.03;5022827;28;20060;-62
2021/11/12 07:19:57;;;;;;;99.65;39.60;;;;;;;7.27;100.00;101490.00;5024777;28;20149;-62
2021/11/12 07:22:24;;;;;;;92.95;40.30;;;;;;;7.26;100.00;101491.75;5026983;28;20401;-63
2021/11/12 07:24:51;;;;;;;90.10;39.55;;;;;;;7.18;100.00;101495.50;5021783;28;20056;-62
2021/11/12 07:27:19;;;;;;;85.32;37.15;;;;;;;7.16;100.00;101495.56;5027862;28;20536;-63
2021/11/12 07:30:10;;;;;;;80.45;36.15;;;;;;;7.22;100.00;101497.13;5030391;28;20060;-62
2021/11/12 07:32:37;;;;;;;84.78;35.80;;;;;;;7.13;100.00;101505.28;5030850;28;20202;-63
2021/11/12 07:35:05;;;;;;;90.60;41.05;;;;;;;7.10;100.00;101509.69;5027236;28;20061;-63
2021/11/12 07:37:33;;;;;;;92.68;38.60;;;;;;;7.14;100.00;101505.22;5025647;28;20064;-63
2021/11/12 07:40:04;;;;;;;78.68;36.00;;;;;;;7.12;100.00;101500.94;5020461;28;20041;-62
2021/11/12 07:42:40;;;;;;;77.70;35.45;;;;;;;7.12;100.00;101499.19;5029957;28;20623;-63
2021/11/12 07:45:21;;;;;;;;;;;;;;;7.13;100.00;101495.66;5021927;28;20058;-63
2021/11/12 07:47:48;;;;;;;84.43;38.28;;;;;;;7.15;100.00;101495.59;5028227;28;20249;-63
2021/11/12 07:50:15;;;;;;;81.20;37.83;;;;;;;7.14;100.00;101496.50;5031535;28;20057;-63
2021/11/12 07:52:42;;;;;;;83.07;38.90;;;;;;;7.17;100.00;101493.81;5029227;28;20045;-62
2021/11/12 07:55:12;;;;;;;95.28;42.88;;;;;;;7.24;100.00;101492.69;5021873;28;20062;-61
2021/11/12 07:57:39;;;;;;;87.18;39.30;;;;;;;7.24;100.00;101495.31;5027912;28;20075;-60
2021/11/12 08:00:07;;;;;;;88.95;41.10;;;;;;;7.29;100.00;101489.03;5023774;28;20053;-62
2021/11/12 08:02:35;;;;;;;87.93;39.33;;;;;;;7.27;100.00;101482.97;5026200;28;20180;-62
2021/11/12 08:05:09;;;;;;;85.80;39.80;;;;;;;7.35;100.00;101491.47;5018970;28;20064;-62
2021/11/12 08:07:37;;;;;;;85.50;38.55;;;;;;;7.37;100.00;101491.41;5029077;28;20059;-62
2021/11/12 08:10:06;;;;;;;84.35;39.42;;;;;;;7.41;100.00;101494.78;5024271;28;20867;-62
2021/11/12 08:12:50;;;;;;;89.30;40.05;;;;;;;7.38;100.00;101487.88;5026210;28;20052;-62
2021/11/12 08:16:10;;;;;;;86.45;39.97;;;;;;;7.38;100.00;101494.88;5018728;28;20568;-62
2021/11/12 08:21:02;;;;;;;83.97;41.63;;;;;;;7.43;100.00;101458.91;5031395;28;20045;-62
2021/11/12 08:23:47;;;;;;;82.10;40.38;;;;;;;7.47;100.00;101450.03;5022650;28;20587;-62
2021/11/12 08:31:57;;;;;;;82.10;37.95;;;;;;;7.52;100.00;101448.13;5027757;28;20061;-62
2021/11/12 08:34:34;;;;;;;82.10;39.85;;;;;;;7.46;100.00;101454.44;5020587;28;20068;-62
2021/11/12 08:37:11;;;;;;;80.32;38.53;;;;;;;7.47;100.00;101456.13;5023536;28;20663;-62
2021/11/12 08:42:18;;;;;;;89.00;40.72;;;;;;;7.55;100.00;101454.13;5023498;28;20053;-62
2021/11/12 08:44:54;;;;;;;93.93;42.90;;;;;;;7.68;100.00;101458.97;5015973;28;20057;-62
2021/11/12 08:47:27;;;;;;;100.10;41.85;;;;;;;7.64;100.00;101457.34;5024067;28;20155;-62
2021/11/12 08:49:55;;;;;;;93.35;40.45;;;;;;;7.62;100.00;101452.19;5017588;28;20065;-62
2021/11/12 08:52:24;;;;;;;94.20;40.95;;;;;;;7.63;100.00;101450.41;5024816;28;20069;-61
2021/11/12 08:54:52;;;;;;;95.20;39.35;;;;;;;7.74;100.00;101449.13;5022037;28;20061;-61
2021/11/12 08:57:20;;;;;;;91.65;39.17;;;;;;;7.76;100.00;101446.47;5023316;28;20064;-62
2021/11/12 08:59:50;;;;;;;89.80;40.55;;;;;;;7.87;100.00;101433.84;5021673;28;20060;-62
2021/11/12 09:02:19;;;;;;;78.03;35.40;;;;;;;7.98;100.00;101431.72;5018382;28;20079;-62
2021/11/12 09:04:47;;;;;;;79.53;36.40;;;;;;;8.07;100.00;101441.03;5019430;28;20106;-62
2021/11/12 09:07:16;;;;;;;80.30;35.47;;;;;;;8.06;100.00;101441.91;5012434;28;20042;-62
2021/11/12 09:09:51;;;;;;;79.38;36.55;;;;;;;8.17;100.00;101436.31;5019544;28;20061;-63
2021/11/12 09:12:21;;;;;;;81.30;38.20;;;;;;;8.35;100.00;101425.13;5014922;28;20049;-63
2021/11/12 09:14:50;;;;;;;74.68;33.90;;;;;;;8.44;100.00;101430.06;5014865;28;20058;-60
2021/11/12 09:17:19;;;;;;;71.80;32.90;;;;;;;8.46;100.00;101422.97;5017841;28;20157;-63
2021/11/12 09:19:51;;;;;;;59.40;29.52;;;;;;;8.55;100.00;101416.53;5021361;28;20520;-63
2021/11/12 09:22:22;;;;;;;68.88;30.55;;;;;;;8.64;100.00;101418.81;5024995;28;20049;-63
2021/11/12 09:24:51;;;;;;;58.55;28.65;;;;;;;8.77;100.00;101422.69;5011608;28;20056;-62
2021/11/12 09:27:19;;;;;;;62.83;29.75;;;;;;;8.79;100.00;101418.25;5020126;28;20078;-63
2021/11/12 09:29:47;;;;;;;66.20;31.65;;;;;;;8.76;100.00;101422.75;5016384;28;20050;-62
2021/11/12 09:32:15;;;;;;;59.25;29.70;;;;;;;8.77;100.00;101417.44;5022114;28;20057;-63
2021/11/12 09:34:42;;;;;;;60.50;29.17;;;;;;;8.88;100.00;101420.50;5024118;28;20537;-63
2021/11/12 09:37:19;;;;;;;60.00;29.35;;;;;;;8.90;100.00;101420.44;5016755;28;20068;-63
2021/11/12 09:39:54;;;;;;;64.15;28.88;;;;;;;8.99;100.00;101401.69;5016685;28;20060;-62
2021/11/12 09:42:25;;;;;;;63.47;30.13;;;;;;;8.94;100.00;101395.78;5024467;28;20145;-63
2021/11/12 09:44:53;;;;;;;56.63;27.45;;;;;;;9.00;100.00;101392.03;5021089;28;20406;-62
2021/11/12 09:47:25;;;;;;;51.78;28.38;;;;;;;8.95;100.00;101394.84;5018586;28;20566;-62
2021/11/12 09:49:54;;;;;;;50.88;26.48;;;;;;;8.92;100.00;101400.25;5017348;28;20062;-62
2021/11/12 09:52:23;;;;;;;51.58;24.27;;;;;;;8.85;100.00;101396.13;5021934;28;20041;-62
2021/11/12 09:54:52;;;;;;;50.00;27.00;;;;;;;8.85;100.00;101404.00;5019336;28;20065;-62
2021/11/12 09:57:20;;;;;;;48.22;26.02;;;;;;;8.99;100.00;101391.19;5022483;28;20042;-62
2021/11/12 09:59:59;;;;;;;44.72;24.10;;;;;;;9.03;100.00;101392.78;5018297;28;20473;-62
2021/11/12 10:02:28;;;;;;;47.28;25.27;;;;;;;9.10;100.00;101393.41;5020575;28;20045;-62
2021/11/12 10:04:56;;;;;;;51.30;25.73;;;;;;;9.09;100.00;101394.28;5013409;28;20490;-61
2021/11/12 10:07:25;;;;;;;46.47;24.42;;;;;;;8.95;100.00;101388.75;5024380;28;20046;-62
2021/11/12 10:10:21;;;;;;;48.47;25.25;;;;;;;8.90;100.00;101388.94;5027132;28;20041;-62
2021/11/12 10:12:49;;;;;;;;;;;;;;;8.96;100.00;101383.44;5022840;28;20137;-63
2021/11/12 10:15:18;;;;;;;47.25;24.67;;;;;;;9.02;100.00;101384.97;5024792;28;19925;-63
2021/11/12 10:17:46;;;;;;;44.03;26.08;;;;;;;8.93;100.00;101382.72;5021374;28;20485;-64
2021/11/12 10:20:17;;;;;;;41.92;24.40;;;;;;;8.95;100.00;101375.63;5021165;28;20045;-63
2021/11/12 10:22:46;;;;;;;39.22;23.42;;;;;;;8.86;100.00;101369.81;5020264;28;20061;-63
2021/11/12 10:25:14;;;;;;;39.30;24.05;;;;;;;8.91;100.00;101366.16;5021251;28;20054;-63
2021/11/12 10:27:51;;;;;;;38.35;22.13;;;;;;;8.87;100.00;101354.91;5024262;28;20505;-64
2021/11/12 10:30:23;;;;;;;39.25;23.40;;;;;;;8.83;100.00;101348.94;5019281;28;20050;-62
2021/11/12 10:32:53;;;;;;;40.75;24.48;;;;;;;8.81;100.00;101342.03;5020640;28;20061;-63
2021/11/12 10:35:27;;;;;;;40.08;23.73;;;;;;;8.91;100.00;101338.13;5017117;28;20136;-63
2021/11/12 10:38:06;;;;;;;42.50;23.42;;;;;;;8.93;100.00;101332.81;5020020;28;20050;-63
2021/11/12 10:40:33;;;;;;;37.83;22.70;;;;;;;8.83;100.00;101337.59;5016194;28;20164;-62
2021/11/12 10:43:00;;;;;;;37.08;21.13;;;;;;;8.85;100.00;101331.34;5019111;28;20049;-63
2021/11/12 10:45:30;;;;;;;34.45;19.33;;;;;;;8.82;100.00;101325.34;5018227;28;20056;-62
2021/11/12 10:47:59;;;;;;;28.48;18.08;;;;;;;8.80;100.00;101327.19;5018201;28;20053;-62
2021/11/12 10:50:28;;;;;;;30.42;18.80;;;;;;;8.85;100.00;101322.63;5017207;28;20076;-63
2021/11/12 10:53:06;;;;;;;29.95;19.65;;;;;;;8.70;100.00;101325.88;5022026;28;20064;-63
2021/11/12 10:55:35;;;;;;;34.90;20.77;;;;;;;8.68;100.00;101322.44;5014170;28;20045;-63
2021/11/12 10:58:06;;;;;;;34.67;22.67;;;;;;;8.68;100.00;101317.19;5013313;28;20145;-63
2021/11/12 11:00:44;;;;;;;32.25;21.75;;;;;;;8.76;100.00;101309.88;5014057;28;20058;-63
2021/11/12 11:03:17;;;;;;;30.23;20.55;;;;;;;8.78;100.00;101316.78;5018504;28;20541;-64
2021/11/12 11:05:55;;;;;;;34.50;22.35;;;;;;;8.88;100.00;101310.22;5026300;28;20422;-62
2021/11/12 11:08:32;;;;;;;34.53;21.92;;;;;;;8.92;100.00;101310.09;5012310;28;20060;-63
2021/11/12 11:11:05;;;;;;;32.22;21.25;;;;;;;9.05;100.00;101306.91;5020471;28;20076;-62
2021/11/12 11:13:38;;;;;;;29.83;19.42;;;;;;;9.00;100.00;101300.97;5016836;28;20045;-63
2021/11/12 11:16:08;;;;;;;28.52;19.75;;;;;;;9.04;100.00;101296.44;5018603;28;20096;-63
2021/11/12 11:18:37;;;;;;;28.33;17.88;;;;;;;9.19;100.00;101290.56;5017580;28;20049;-63
2021/11/12 11:21:15;;;;;;;25.33;17.65;;;;;;;9.33;100.00;101292.59;5016646;28;20069;-62
2021/11/12 11:23:53;;;;;;;24.95;17.67;;;;;;;9.29;100.00;101289.25;5007259;28;20061;-62
2021/11/12 11:26:29;;;;;;;24.13;16.90;;;;;;;9.19;100.00;101277.44;5016649;28;20046;-63
2021/11/12 11:28:59;;;;;;;25.80;15.30;;;;;;;9.30;100.00;101275.19;5016693;28;20057;-61
2021/11/12 11:31:28;;;;;;;27.00;17.73;;;;;;;9.33;100.00;101282.09;5018620;28;20132;-62
2021/11/12 11:33:56;;;;;;;24.50;16.10;;;;;;;9.45;100.00;101281.53;5023180;28;20064;-63
2021/11/12 11:36:25;;;;;;;25.98;17.10;;;;;;;9.52;100.00;101277.72;5023683;28;20053;-63
2021/11/12 11:38:54;;;;;;;28.00;15.60;;;;;;;9.59;100.00;101275.66;5024438;28;20100;-63
2021/11/12 11:41:23;;;;;;;20.77;15.02;;;;;;;9.75;100.00;101281.13;5020744;28;20046;-64
2021/11/12 11:43:51;;;;;;;20.25;15.40;;;;;;;9.95;100.00;101269.69;5017330;28;20049;-62
2021/11/12 11:46:25;;;;;;;19.80;14.13;;;;;;;9.96;98.59;101263.53;5021459;28;20045;-62
2021/11/12 11:48:55;;;;;;;20.27;14.20;;;;;;;9.95;98.02;101254.78;5021643;28;20995;-62
2021/11/12 11:51:34;;;;;;;19.80;13.98;;;;;;;10.00;98.08;101250.16;5025332;28;20049;-62
2021/11/12 11:54:04;;;;;;;21.02;14.32;;;;;;;10.05;97.34;101255.19;5032682;28;20413;-61
2021/11/12 11:56:35;;;;;;;21.58;14.23;;;;;;;10.06;96.79;101247.22;5018998;28;20497;-62
2021/11/12 11:59:10;;;;;;;20.85;13.48;;;;;;;9.92;97.54;101247.00;5025205;28;20072;-61
2021/11/12 12:01:40;;;;;;;20.10;14.40;;;;;;;9.96;97.24;101251.22;5026778;28;20124;-62
2021/11/12 12:04:12;;;;;;;17.85;13.65;;;;;;;10.03;97.12;101251.78;5029390;28;20063;-61
2021/11/12 12:06:41;;;;;;;21.30;12.48;;;;;;;10.10;96.66;101240.91;5022381;28;20062;-62
2021/11/12 12:09:12;;;;;;;20.13;13.07;;;;;;;10.07;96.68;101242.81;5018898;28;20131;-62
2021/11/12 12:11:51;;;;;;;18.20;12.95;;;;;;;9.93;97.13;101238.19;5032773;28;20049;-62
2021/11/12 12:14:26;;;;;;;19.23;13.98;;;;;;;9.87;97.10;101231.44;5028710;28;20459;-61
2021/11/12 12:17:02;;;;;;;21.08;14.18;;;;;;;9.81;97.97;101223.81;5030341;28;20164;-63
2021/11/12 12:19:45;;;;;;;22.65;14.77;;;;;;;9.84;97.89;101217.59;5022099;28;20057;-62
2021/11/12 13:22:52;;;;;;;14.73;10.95;;;;;;;10.11;93.95;101126.00;5019389;28;20061;-63
2021/11/12 13:25:37;;;;;;;16.60;9.45;;;;;;;9.75;94.01;101128.63;5022405;28;20076;-63
2021/11/12 13:28:06;;;;;;;11.65;8.77;;;;;;;9.58;95.35;101132.03;5023453;28;20045;-63
2021/11/12 13:30:34;;;;;;;14.75;10.30;;;;;;;9.49;95.71;101135.94;5020818;28;20053;-62
2021/11/12 13:33:02;;;;;;;13.15;9.35;;;;;;;9.39;96.12;101146.03;5028707;28;20057;-63
2021/11/12 13:35:31;;;;;;;12.73;9.25;;;;;;;9.29;96.74;101134.22;5023139;28;20061;-62
2021/11/12 13:37:58;;;;;;;12.90;8.10;;;;;;;9.12;97.31;101129.72;5041331;22;20042;-69
2021/11/12 13:40:32;;;;;;;12.98;8.38;;;;;;;9.16;98.26;101129.59;5040122;28;20419;-71
2021/11/12 13:43:00;;;;;;;12.80;9.50;;;;;;;9.12;97.42;101129.72;5027391;28;20047;-67
2021/11/12 13:45:29;;;;;;;11.68;8.38;;;;;;;9.05;98.21;101125.69;5044613;28;20060;-70
2021/11/12 13:48:09;;;;;;;11.05;7.80;;;;;;;9.07;97.90;101131.72;5027513;28;20416;-69
2021/11/12 13:50:45;;;;;;;11.48;8.48;;;;;;;8.96;98.95;101131.34;5029075;28;20520;-69
2021/11/12 13:53:13;;;;;;;12.90;9.80;;;;;;;8.84;99.71;101127.47;5025005;28;20494;-70
2021/11/12 13:55:41;;;;;;;12.35;7.88;;;;;;;8.83;98.46;101117.06;4992551;28;20116;-70
2021/11/12 13:58:08;;;;;;;13.48;7.95;;;;;;;8.80;99.31;101111.94;5025456;28;20056;-69
2021/11/12 14:00:36;;;;;;;12.05;7.38;;;;;;;8.71;99.35;101107.94;5003572;28;20316;-69
2021/11/12 14:03:07;;;;;;;12.95;7.45;;;;;;;8.72;99.90;101121.91;5029906;28;20103;-69
2021/11/12 14:05:37;;;;;;;11.40;7.95;;;;;;;8.64;100.00;101119.59;5012048;28;20042;-68
2021/11/12 14:08:14;;;;;;;9.88;6.88;;;;;;;8.67;99.82;101122.09;5013154;28;20047;-68
2021/11/12 14:10:44;;;;;;;9.68;7.15;;;;;;;8.62;99.29;101117.06;5034469;28;20137;-67
2021/11/12 14:13:15;;;;;;;13.02;8.27;;;;;;;8.57;99.48;101110.31;5028007;28;20049;-68
2021/11/12 14:16:08;;;;;;;18.05;9.20;;;;;;;8.55;100.00;101120.00;5033504;28;20142;-68
2021/11/12 14:18:44;;;;;;;13.40;9.00;;;;;;;8.46;99.62;101123.00;5015487;28;20052;-68
2021/11/12 14:35:20;;;;;;;14.52;10.30;;;;;;;8.28;100.00;101119.34;5018855;28;20051;-67
2021/11/12 14:48:24;;;;;;;19.23;11.02;;;;;;;8.22;99.96;101101.25;5031017;28;20045;-68
2021/11/12 14:51:11;;;;;;;;;;;;;;;8.17;100.00;101101.44;5027008;28;20132;-69
2021/11/12 14:53:41;;;;;;;;;;;;;;;8.14;100.00;101106.81;5020561;28;19935;-71
2021/11/12 14:56:15;;;;;;;19.85;12.23;;;;;;;8.16;99.69;101096.28;5025010;28;19921;-68
2021/11/12 14:58:46;;;;;;;23.25;12.25;;;;;;;8.09;99.42;101101.75;5022102;28;20048;-68
2021/11/12 15:01:19;;;;;;;22.52;12.30;;;;;;;8.04;100.00;101092.38;5005584;28;20052;-68
2021/11/12 15:03:46;;;;;;;19.27;12.45;;;;;;;8.06;100.00;101096.66;5019343;28;20083;-68
2021/11/12 15:06:15;;;;;;;19.98;12.48;;;;;;;8.11;100.00;101091.22;5019390;28;20045;-67
2021/11/12 15:09:04;;;;;;;18.25;12.20;;;;;;;8.11;100.00;101078.97;5020967;28;20063;-68
2021/11/12 15:11:32;;;;;;;17.35;11.70;;;;;;;8.08;100.00;101075.59;5025508;28;20041;-67
2021/11/12 15:14:03;;;;;;;20.23;11.95;;;;;;;7.99;100.00;101076.84;4999965;28;20053;-68
2021/11/12 15:16:33;;;;;;;16.70;11.68;;;;;;;8.02;100.00;101079.34;5017779;28;20053;-68
2021/11/12 15:19:03;;;;;;;17.65;11.68;;;;;;;8.02;100.00;101071.47;5001780;28;20041;-68
2021/11/12 15:21:38;;;;;;;19.83;12.50;;;;;;;8.04;100.00;101068.78;5021932;28;20049;-68
2021/11/12 15:24:22;;;;;;;17.15;12.02;;;;;;;7.92;99.91;101056.16;5001110;28;20053;-68
2021/11/12 15:29:34;;;;;;;20.88;12.38;;;;;;;7.79;100.00;101061.94;5017746;28;20065;-68
2021/11/12 15:34:54;;;;;;;17.10;12.40;;;;;;;7.84;100.00;101059.13;5018303;28;20053;-68
2021/11/12 15:37:32;;;;;;;;;;;;;;;7.82;100.00;101068.78;5020618;28;20067;-68
2021/11/12 15:40:10;;;;;;;19.02;11.90;;;;;;;7.88;100.00;101065.94;5008525;28;20336;-68
2021/11/12 15:45:37;;;;;;;19.13;12.52;;;;;;;7.87;100.00;101069.47;5031326;28;20156;-67
2021/11/12 15:50:48;;;;;;;20.77;12.30;;;;;;;7.92;100.00;101059.63;5019748;28;20041;-68